createdAt,value
2023-02-25T00:01:33.364Z,100.00
2023-02-25T00:03:37.292Z,100.00
2023-02-25T00:05:40.241Z,100.00
2023-02-25T00:07:43.422Z,100.00
2023-02-25T00:09:46.207Z,100.00
2023-02-25T00:11:48.973Z,100.00
2023-02-25T00:13:52.138Z,100.00
2023-02-25T00:15:54.963Z,100.00
2023-02-25T00:17:59.105Z,100.00
2023-02-25T00:20:01.908Z,100.00
2023-02-25T00:22:04.680Z,100.00
2023-02-25T00:24:16.428Z,100.00
2023-02-25T00:26:20.323Z,100.00
2023-02-25T00:28:23.298Z,100.00
2023-02-25T00:30:26.508Z,100.00
2023-02-25T00:32:29.517Z,100.00
2023-02-25T00:34:33.717Z,100.00
2023-02-25T00:36:36.485Z,100.00
2023-02-25T00:38:41.918Z,100.00
2023-02-25T00:40:45.420Z,100.00
2023-02-25T00:42:49.495Z,100.00
2023-02-25T00:44:52.615Z,100.00
2023-02-25T00:46:55.344Z,100.00
2023-02-25T00:48:59.231Z,100.00
2023-02-25T00:51:08.914Z,100.00
2023-02-25T00:53:11.683Z,100.00
2023-02-25T00:55:14.513Z,100.00
2023-02-25T00:57:17.261Z,100.00
2023-02-25T00:59:20.198Z,100.00
2023-02-25T01:01:25.228Z,100.00
2023-02-25T01:03:28.502Z,100.00
2023-02-25T01:05:32.654Z,100.00
2023-02-25T01:07:38.115Z,100.00
2023-02-25T01:09:41.627Z,100.00
2023-02-25T01:11:46.523Z,100.00
2023-02-25T01:13:50.303Z,100.00
2023-02-25T01:15:53.131Z,100.00
2023-02-25T01:17:55.872Z,100.00
2023-02-25T01:20:00.810Z,100.00
2023-02-25T01:22:03.620Z,100.00
2023-02-25T01:24:12.252Z,100.00
2023-02-25T01:26:15.677Z,100.00
2023-02-25T01:28:19.759Z,100.00
2023-02-25T01:30:22.826Z,100.00
2023-02-25T01:32:25.682Z,100.00
2023-02-25T01:34:29.794Z,100.00
2023-02-25T01:36:34.216Z,100.00
2023-02-25T01:38:37.061Z,100.00
2023-02-25T01:40:42.237Z,100.00
2023-02-25T01:42:45.635Z,100.00
2023-02-25T01:45:34.448Z,100.00
2023-02-25T01:47:40.813Z,100.00
2023-02-25T01:49:47.387Z,100.00
2023-02-25T01:51:52.864Z,100.00
2023-02-25T01:53:57.901Z,100.00
2023-02-25T01:56:04.520Z,100.00
2023-02-25T01:58:07.515Z,100.00
2023-02-25T02:00:16.027Z,100.00
2023-02-25T02:02:22.639Z,100.00
2023-02-25T02:04:27.518Z,100.00
2023-02-25T02:06:34.443Z,100.00
2023-02-25T02:08:38.209Z,100.00
2023-02-25T02:10:40.961Z,100.00
2023-02-25T02:12:48.450Z,100.00
2023-02-25T02:14:51.558Z,100.00
2023-02-25T02:17:12.156Z,100.00
2023-02-25T02:19:28.837Z,100.00
2023-02-25T02:21:55.704Z,100.00
2023-02-25T02:24:43.874Z,100.00
2023-02-25T02:27:02.255Z,100.00
2023-02-25T02:29:27.785Z,100.00
2023-02-25T02:31:42.532Z,100.00
2023-02-25T02:33:56.846Z,100.00
2023-02-25T02:36:06.892Z,100.00
2023-02-25T02:38:15.294Z,100.00
2023-02-25T02:40:27.537Z,100.00
2023-02-25T02:42:37.156Z,100.00
2023-02-25T02:44:49.341Z,100.00
2023-02-25T02:46:58.851Z,100.00
2023-02-25T02:49:07.900Z,100.00
2023-02-25T02:51:17.075Z,100.00
2023-02-25T02:53:25.101Z,100.00
2023-02-25T02:55:35.106Z,100.00
2023-02-25T02:57:43.059Z,100.00
2023-02-25T02:59:51.266Z,100.00
2023-02-25T03:02:03.772Z,100.00
2023-02-25T03:04:10.577Z,100.00
2023-02-25T03:06:18.589Z,100.00
2023-02-25T03:08:26.414Z,100.00
2023-02-25T03:10:29.349Z,100.00
2023-02-25T03:12:32.488Z,100.00
2023-02-25T03:14:36.979Z,100.00
2023-02-25T03:16:42.499Z,100.00
2023-02-25T03:18:54.574Z,100.00
2023-02-25T03:20:59.259Z,100.00
2023-02-25T03:23:05.060Z,100.00
2023-02-25T03:25:14.177Z,100.00
2023-02-25T03:27:29.509Z,100.00
2023-02-25T03:29:37.284Z,100.00
2023-02-25T03:31:46.675Z,100.00
2023-02-25T03:33:56.770Z,100.00
2023-02-25T03:36:01.728Z,100.00
2023-02-25T03:38:09.279Z,100.00
2023-02-25T03:40:15.714Z,100.00
2023-02-25T03:42:22.896Z,100.00
2023-02-25T03:44:33.011Z,100.00
2023-02-25T03:46:36.920Z,100.00
2023-02-25T03:48:40.873Z,100.00
2023-02-25T03:50:53.286Z,100.00
2023-02-25T03:52:56.559Z,100.00
2023-02-25T03:55:22.910Z,100.00
2023-02-25T03:57:29.459Z,100.00
2023-02-25T03:59:32.230Z,100.00
2023-02-25T04:01:35.859Z,100.00
2023-02-25T04:03:38.637Z,100.00
2023-02-25T04:05:41.538Z,100.00
2023-02-25T04:07:45.628Z,100.00
2023-02-25T04:09:48.470Z,100.00
2023-02-25T04:11:56.993Z,100.00
2023-02-25T04:13:59.998Z,100.00
2023-02-25T04:16:03.093Z,100.00
2023-02-25T04:18:06.837Z,100.00
2023-02-25T04:20:10.956Z,100.00
2023-02-25T04:22:13.708Z,100.00
2023-02-25T04:24:17.830Z,100.00
2023-02-25T04:26:20.846Z,100.00
2023-02-25T04:28:23.737Z,100.00
2023-02-25T04:30:26.605Z,100.00
2023-02-25T04:32:29.508Z,100.00
2023-02-25T04:34:32.308Z,100.00
2023-02-25T04:36:37.003Z,100.00
2023-02-25T04:38:39.687Z,100.00
2023-02-25T04:40:43.823Z,100.00
2023-02-25T04:42:46.693Z,100.00
2023-02-25T04:44:49.423Z,100.00
2023-02-25T04:46:52.534Z,100.00
2023-02-25T04:48:55.270Z,100.00
2023-02-25T04:51:02.205Z,100.00
2023-02-25T04:53:04.944Z,100.00
2023-02-25T04:55:09.786Z,100.00
2023-02-25T04:57:14.489Z,100.00
2023-02-25T04:59:17.521Z,100.00
2023-02-25T05:01:20.334Z,100.00
2023-02-25T05:03:23.128Z,100.00
2023-02-25T05:05:25.828Z,100.00
2023-02-25T05:07:28.556Z,100.00
2023-02-25T05:09:31.503Z,100.00
2023-02-25T05:11:34.160Z,100.00
2023-02-25T05:13:38.220Z,100.00
2023-02-25T05:15:41.192Z,100.00
2023-02-25T05:17:43.908Z,100.00
2023-02-25T05:19:46.652Z,100.00
2023-02-25T05:21:49.872Z,100.00
2023-02-25T05:23:54.426Z,100.00
2023-02-25T05:25:58.775Z,100.00
2023-02-25T05:28:01.845Z,100.00
2023-02-25T05:30:07.205Z,100.00
2023-02-25T05:32:10.111Z,100.00
2023-02-25T05:34:12.989Z,100.00
2023-02-25T05:36:17.647Z,100.00
2023-02-25T05:38:20.459Z,100.00
2023-02-25T05:40:23.271Z,100.00
2023-02-25T05:42:26.017Z,100.00
2023-02-25T05:44:28.731Z,100.00
2023-02-25T05:46:32.863Z,100.00
2023-02-25T05:48:35.777Z,100.00
2023-02-25T05:50:41.771Z,100.00
2023-02-25T05:52:45.045Z,100.00
2023-02-25T05:54:48.368Z,100.00
2023-02-25T05:56:52.605Z,100.00
2023-02-25T05:58:56.098Z,100.00
2023-02-25T06:00:58.828Z,100.00
2023-02-25T06:03:03.006Z,100.00
2023-02-25T06:05:06.937Z,100.00
2023-02-25T06:07:09.776Z,100.00
2023-02-25T06:09:12.503Z,100.00
2023-02-25T06:11:19.320Z,100.00
2023-02-25T06:13:22.012Z,100.00
2023-02-25T06:15:24.771Z,100.00
2023-02-25T06:17:27.556Z,100.00
2023-02-25T06:19:31.576Z,100.00
2023-02-25T06:21:35.516Z,100.00
2023-02-25T06:23:40.085Z,100.00
2023-02-25T06:25:42.832Z,100.00
2023-02-25T06:27:45.621Z,100.00
2023-02-25T06:29:48.552Z,100.00
2023-02-25T06:31:51.420Z,100.00
2023-02-25T06:33:55.258Z,100.00
2023-02-25T06:35:59.871Z,100.00
2023-02-25T06:38:02.627Z,100.00
2023-02-25T06:40:07.824Z,100.00
2023-02-25T06:42:10.789Z,100.00
2023-02-25T06:44:15.742Z,100.00
2023-02-25T06:46:20.460Z,100.00
2023-02-25T06:48:23.302Z,100.00
2023-02-25T06:50:26.014Z,100.00
2023-02-25T06:52:30.169Z,100.00
2023-02-25T06:54:32.903Z,100.00
2023-02-25T06:56:35.657Z,100.00
2023-02-25T06:58:38.906Z,92.23
2023-02-25T07:00:43.177Z,100.00
2023-02-25T07:02:45.945Z,100.00
2023-02-25T07:04:48.678Z,100.00
2023-02-25T07:06:51.462Z,100.00
2023-02-25T07:08:55.544Z,100.00
2023-02-25T07:11:10.059Z,100.00
2023-02-25T07:13:13.245Z,100.00
2023-02-25T07:15:15.983Z,100.00
2023-02-25T07:17:18.835Z,100.00
2023-02-25T07:19:21.606Z,100.00
2023-02-25T07:21:29.203Z,100.00
2023-02-25T07:23:32.039Z,100.00
2023-02-25T07:25:36.109Z,100.00
2023-02-25T07:27:42.962Z,100.00
2023-02-25T07:29:47.269Z,100.00
2023-02-25T07:31:50.232Z,100.00
2023-02-25T07:33:55.065Z,100.00
2023-02-25T07:35:58.043Z,100.00
2023-02-25T07:38:01.089Z,100.00
2023-02-25T07:40:04.414Z,100.00
2023-02-25T07:42:08.488Z,100.00
2023-02-25T07:44:12.519Z,100.00
2023-02-25T07:46:15.583Z,100.00
2023-02-25T07:48:18.364Z,100.00
2023-02-25T07:50:21.373Z,100.00
2023-02-25T07:52:24.213Z,100.00
2023-02-25T07:54:26.955Z,100.00
2023-02-25T07:56:31.625Z,100.00
2023-02-25T07:58:36.324Z,100.00
2023-02-25T08:00:40.883Z,100.00
2023-02-25T08:02:45.312Z,100.00
2023-02-25T08:04:48.231Z,100.00
2023-02-25T08:06:51.637Z,100.00
2023-02-25T08:08:55.273Z,100.00
2023-02-25T08:10:58.123Z,100.00
2023-02-25T08:13:00.891Z,99.64
2023-02-25T08:15:05.649Z,100.00
2023-02-25T08:17:08.362Z,100.00
2023-02-25T08:19:11.089Z,100.00
2023-02-25T08:21:15.418Z,100.00
2023-02-25T08:23:19.592Z,100.00
2023-02-25T08:25:22.296Z,100.00
2023-02-25T08:27:24.993Z,100.00
2023-02-25T08:29:27.780Z,100.00
2023-02-25T08:31:32.071Z,100.00
2023-02-25T08:33:34.888Z,100.00
2023-02-25T08:35:37.692Z,100.00
2023-02-25T08:37:40.502Z,100.00
2023-02-25T08:39:43.233Z,100.00
2023-02-25T08:41:46.044Z,100.00
2023-02-25T08:43:51.343Z,100.00
2023-02-25T08:45:56.574Z,100.00
2023-02-25T08:48:01.207Z,100.00
2023-02-25T08:50:05.453Z,100.00
2023-02-25T08:52:11.896Z,100.00
2023-02-25T08:54:15.403Z,100.00
2023-02-25T08:56:18.435Z,100.00
2023-02-25T08:58:21.139Z,100.00
2023-02-25T09:00:25.296Z,100.00
2023-02-25T09:02:28.042Z,100.00
2023-02-25T09:04:32.146Z,100.00
2023-02-25T09:06:34.901Z,100.00
2023-02-25T09:08:37.589Z,100.00
2023-02-25T09:10:49.887Z,100.00
2023-02-25T09:12:53.478Z,100.00
2023-02-25T09:14:56.210Z,100.00
2023-02-25T09:16:58.991Z,100.00
2023-02-25T09:19:01.767Z,100.00
2023-02-25T09:21:06.311Z,100.00
2023-02-25T09:23:11.199Z,100.00
2023-02-25T09:25:13.990Z,100.00
2023-02-25T09:27:16.745Z,100.00
2023-02-25T09:29:19.512Z,99.59
2023-02-25T09:31:22.760Z,100.00
2023-02-25T09:33:26.144Z,97.20
2023-02-25T09:35:29.219Z,95.33
2023-02-25T09:37:33.327Z,100.00
2023-02-25T09:39:36.165Z,94.08
2023-02-25T09:41:46.277Z,100.00
2023-02-25T09:43:56.365Z,92.86
2023-02-25T09:46:07.547Z,85.50
2023-02-25T09:48:18.505Z,77.79
2023-02-25T09:50:24.365Z,78.71
2023-02-25T09:52:29.946Z,78.71
2023-02-25T09:54:39.480Z,83.78
2023-02-25T09:56:42.677Z,84.63
2023-02-25T09:58:50.806Z,80.41
2023-02-25T10:01:04.427Z,84.82
2023-02-25T10:03:17.111Z,85.59
2023-02-25T10:05:27.440Z,88.77
2023-02-25T10:07:36.340Z,86.06
2023-02-25T10:09:51.390Z,79.65
2023-02-25T10:12:02.958Z,85.86
2023-02-25T10:14:21.709Z,83.00
2023-02-25T10:16:36.017Z,80.58
2023-02-25T10:18:54.880Z,76.15
2023-02-25T10:21:10.007Z,81.34
2023-02-25T10:23:25.384Z,83.98
2023-02-25T10:25:34.354Z,79.61
2023-02-25T10:27:39.885Z,76.81
2023-02-25T10:29:49.171Z,88.57
2023-02-25T10:31:56.915Z,82.74
2023-02-25T10:34:06.492Z,89.88
2023-02-25T10:36:14.618Z,88.60
2023-02-25T10:38:17.355Z,92.73
2023-02-25T10:40:24.421Z,86.28
2023-02-25T10:42:29.300Z,81.22
2023-02-25T10:44:32.037Z,80.34
2023-02-25T10:46:40.455Z,76.31
2023-02-25T10:48:49.050Z,76.17
2023-02-25T10:51:09.849Z,79.22
2023-02-25T10:53:15.845Z,73.22
2023-02-25T10:55:34.321Z,78.65
2023-02-25T10:57:43.107Z,84.21
2023-02-25T10:59:46.760Z,72.48
2023-02-25T11:01:50.409Z,75.56
2023-02-25T11:03:59.159Z,74.03
2023-02-25T11:06:23.975Z,80.37
2023-02-25T11:08:28.742Z,80.54
2023-02-25T11:10:31.555Z,79.55
2023-02-25T11:12:43.421Z,81.96
2023-02-25T11:14:46.504Z,82.82
2023-02-25T11:16:49.288Z,87.38
2023-02-25T11:18:55.203Z,83.55
2023-02-25T11:21:00.312Z,82.24
2023-02-25T11:23:03.400Z,81.67
2023-02-25T11:25:08.891Z,83.96
2023-02-25T11:27:26.249Z,78.96
2023-02-25T11:29:34.264Z,78.36
2023-02-25T11:31:40.567Z,78.43
2023-02-25T11:33:48.298Z,76.08
2023-02-25T11:35:56.981Z,78.13
2023-02-25T11:38:13.087Z,77.56
2023-02-25T11:40:25.462Z,79.96
2023-02-25T11:42:30.134Z,76.71
2023-02-25T11:44:43.499Z,78.29
2023-02-25T11:46:50.566Z,74.15
2023-02-25T11:48:55.933Z,76.60
2023-02-25T11:51:13.824Z,74.22
2023-02-25T11:53:25.851Z,77.50
2023-02-25T11:55:40.962Z,73.31
2023-02-25T11:57:54.133Z,75.27
2023-02-25T12:00:11.365Z,79.55
2023-02-25T12:02:37.705Z,78.16
2023-02-25T12:04:54.610Z,79.93
2023-02-25T12:07:20.467Z,75.81
2023-02-25T12:10:01.280Z,78.63
2023-02-25T12:12:41.362Z,80.73
2023-02-25T12:15:19.307Z,78.47
2023-02-25T12:17:42.573Z,79.56
2023-02-25T12:20:35.192Z,77.16
2023-02-25T12:23:15.673Z,78.37
2023-02-25T12:25:30.928Z,78.33
2023-02-25T12:27:53.737Z,80.61
2023-02-25T12:30:08.845Z,74.53
2023-02-25T12:32:32.358Z,75.39
2023-02-25T12:34:56.868Z,77.67
2023-02-25T12:37:23.233Z,74.13
2023-02-25T12:39:48.339Z,80.12
2023-02-25T12:42:00.759Z,80.75
2023-02-25T12:44:20.413Z,76.86
2023-02-25T12:46:35.856Z,79.00
2023-02-25T12:49:05.261Z,80.81
2023-02-25T12:51:29.271Z,78.00
2023-02-25T12:53:47.825Z,77.87
2023-02-25T12:56:10.492Z,77.80
2023-02-25T12:58:28.015Z,77.33
2023-02-25T13:00:47.647Z,81.07
2023-02-25T13:03:04.370Z,83.90
2023-02-25T13:05:25.848Z,80.79
2023-02-25T13:07:48.131Z,77.36
2023-02-25T13:10:07.956Z,76.17
2023-02-25T13:12:23.160Z,76.96
2023-02-25T13:14:38.777Z,75.23
2023-02-25T13:16:58.343Z,77.30
2023-02-25T13:19:16.280Z,81.48
2023-02-25T13:21:39.531Z,79.36
2023-02-25T13:24:05.399Z,76.65
2023-02-25T13:26:25.952Z,76.44
2023-02-25T13:28:49.144Z,79.05
2023-02-25T13:30:59.317Z,82.65
2023-02-25T13:33:20.459Z,82.11
2023-02-25T13:35:36.352Z,78.46
2023-02-25T13:37:49.507Z,81.63
2023-02-25T13:40:08.424Z,81.97
2023-02-25T13:42:28.259Z,81.76
2023-02-25T13:44:52.668Z,80.39
2023-02-25T13:47:10.910Z,79.97
2023-02-25T13:49:53.431Z,82.64
2023-02-25T13:52:27.696Z,87.17
2023-02-25T13:54:44.779Z,86.09
2023-02-25T13:57:05.302Z,84.26
2023-02-25T13:59:34.746Z,82.86
2023-02-25T14:01:50.000Z,81.98
2023-02-25T14:04:23.438Z,83.33
2023-02-25T14:06:40.437Z,84.49
2023-02-25T14:09:03.117Z,87.50
2023-02-25T14:11:26.867Z,88.29
2023-02-25T14:13:58.339Z,86.24
2023-02-25T14:16:08.480Z,87.29
2023-02-25T14:18:32.174Z,87.47
2023-02-25T14:20:47.010Z,86.90
2023-02-25T14:22:55.009Z,87.92
2023-02-25T14:25:07.969Z,90.61
2023-02-25T14:27:25.973Z,88.13
2023-02-25T14:29:35.729Z,86.46
2023-02-25T14:31:52.588Z,84.88
2023-02-25T14:34:22.020Z,85.60
2023-02-25T14:37:00.578Z,85.02
2023-02-25T14:39:29.481Z,84.63
2023-02-25T14:41:46.479Z,82.69
2023-02-25T14:43:54.636Z,85.59
2023-02-25T14:46:03.797Z,83.24
2023-02-25T14:48:13.498Z,84.66
2023-02-25T14:50:21.394Z,81.83
2023-02-25T14:52:53.381Z,87.15
2023-02-25T14:55:17.711Z,85.69
2023-02-25T14:57:43.848Z,84.91
2023-02-25T15:00:12.098Z,86.11
2023-02-25T15:02:47.165Z,86.99
2023-02-25T15:05:16.623Z,88.64
2023-02-25T15:07:38.518Z,87.39
2023-02-25T15:10:17.684Z,87.54
2023-02-25T15:12:37.001Z,88.01
2023-02-25T15:15:10.136Z,88.31
2023-02-25T15:17:46.365Z,85.66
2023-02-25T15:20:05.104Z,87.11
2023-02-25T15:22:26.219Z,87.87
2023-02-25T15:24:46.845Z,88.26
2023-02-25T15:26:50.294Z,86.01
2023-02-25T15:28:54.782Z,87.10
2023-02-25T15:31:32.919Z,88.15
2023-02-25T15:33:39.604Z,87.55
2023-02-25T15:36:00.392Z,90.57
2023-02-25T15:38:09.443Z,89.72
2023-02-25T15:40:44.913Z,87.19
2023-02-25T15:42:50.545Z,84.19
2023-02-25T15:44:53.741Z,86.10
2023-02-25T15:47:20.115Z,86.69
2023-02-25T15:49:31.262Z,87.43
2023-02-25T15:51:45.162Z,89.66
2023-02-25T15:53:48.987Z,88.25
2023-02-25T15:55:53.348Z,87.93
2023-02-25T15:57:56.028Z,91.50
2023-02-25T15:59:58.702Z,92.95
2023-02-25T16:02:01.464Z,92.71
2023-02-25T16:04:23.532Z,92.00
2023-02-25T16:06:35.008Z,90.66
2023-02-25T16:08:42.384Z,92.01
2023-02-25T16:10:49.193Z,90.91
2023-02-25T16:12:55.646Z,88.55
2023-02-25T16:14:59.474Z,89.76
2023-02-25T16:17:06.312Z,86.55
2023-02-25T16:19:13.501Z,81.63
2023-02-25T16:21:23.692Z,81.39
2023-02-25T16:23:28.964Z,79.95
2023-02-25T16:25:39.682Z,79.43
2023-02-25T16:27:54.766Z,80.63
2023-02-25T16:30:08.387Z,79.86
2023-02-25T16:32:23.793Z,76.43
2023-02-25T16:34:31.560Z,76.60
2023-02-25T16:36:40.595Z,78.19
2023-02-25T16:38:51.623Z,78.35
2023-02-25T16:40:54.982Z,81.58
2023-02-25T16:42:59.701Z,83.82
2023-02-25T16:45:05.907Z,85.21
2023-02-25T16:47:23.579Z,86.55
2023-02-25T16:49:31.558Z,86.62
2023-02-25T16:51:38.165Z,87.40
2023-02-25T16:53:46.387Z,88.00
2023-02-25T16:55:49.579Z,88.08
2023-02-25T16:58:07.750Z,88.31
2023-02-25T17:00:19.913Z,89.24
2023-02-25T17:02:25.081Z,88.68
2023-02-25T17:04:31.543Z,87.76
2023-02-25T17:06:34.301Z,87.99
2023-02-25T17:08:39.683Z,87.88
2023-02-25T17:10:48.047Z,87.31
2023-02-25T17:12:50.919Z,87.74
2023-02-25T17:14:54.121Z,87.77
2023-02-25T17:16:57.528Z,88.31
2023-02-25T17:19:04.308Z,87.31
2023-02-25T17:21:16.681Z,89.35
2023-02-25T17:23:19.634Z,88.76
2023-02-25T17:25:27.297Z,89.21
2023-02-25T17:27:31.667Z,87.37
2023-02-25T17:29:36.627Z,87.13
2023-02-25T17:31:45.161Z,87.89
2023-02-25T17:33:49.577Z,88.37
2023-02-25T17:35:55.602Z,90.61
2023-02-25T17:37:58.588Z,91.51
2023-02-25T17:40:04.417Z,91.69
2023-02-25T17:42:28.360Z,93.12
2023-02-25T17:44:50.262Z,94.10
2023-02-25T17:46:53.923Z,95.22
2023-02-25T17:48:59.256Z,96.56
2023-02-25T17:51:07.746Z,94.56
2023-02-25T17:53:39.162Z,97.33
2023-02-25T17:55:41.819Z,99.68
2023-02-25T17:57:44.548Z,100.00
2023-02-25T17:59:53.366Z,100.00
2023-02-25T18:01:58.404Z,100.00
2023-02-25T18:04:06.820Z,100.00
2023-02-25T18:06:28.778Z,100.00
2023-02-25T18:08:32.371Z,100.00
2023-02-25T18:10:55.376Z,100.00
2023-02-25T18:12:59.240Z,100.00
2023-02-25T18:15:05.999Z,100.00
2023-02-25T18:17:14.799Z,100.00
2023-02-25T18:19:27.700Z,100.00
2023-02-25T18:21:30.483Z,100.00
2023-02-25T18:23:33.290Z,100.00
2023-02-25T18:25:38.669Z,100.00
2023-02-25T18:27:41.758Z,100.00
2023-02-25T18:29:44.476Z,100.00
2023-02-25T18:31:48.676Z,100.00
2023-02-25T18:33:52.704Z,100.00
2023-02-25T18:35:57.321Z,100.00
2023-02-25T18:38:01.290Z,100.00
2023-02-25T18:40:04.760Z,100.00
2023-02-25T18:42:07.548Z,100.00
2023-02-25T18:44:14.555Z,100.00
2023-02-25T18:46:17.348Z,100.00
2023-02-25T18:48:21.583Z,100.00
2023-02-25T18:50:25.490Z,100.00
2023-02-25T18:52:28.286Z,100.00
2023-02-25T18:54:31.074Z,100.00
2023-02-25T18:56:34.220Z,100.00
2023-02-25T18:58:36.979Z,100.00
2023-02-25T19:00:39.878Z,100.00
2023-02-25T19:02:48.453Z,100.00
2023-02-25T19:04:53.146Z,100.00
2023-02-25T19:06:55.904Z,100.00
2023-02-25T19:09:00.107Z,100.00
2023-02-25T19:11:02.890Z,100.00
2023-02-25T19:13:08.515Z,100.00
2023-02-25T19:15:15.410Z,100.00
2023-02-25T19:17:18.279Z,100.00
2023-02-25T19:19:21.013Z,100.00
2023-02-25T19:21:25.150Z,100.00
2023-02-25T19:23:28.954Z,100.00
2023-02-25T19:25:35.124Z,100.00
2023-02-25T19:27:37.904Z,100.00
2023-02-25T19:29:40.655Z,100.00
2023-02-25T19:31:43.544Z,100.00
2023-02-25T19:33:46.770Z,100.00
2023-02-25T19:35:49.589Z,100.00
2023-02-25T19:37:54.152Z,100.00
2023-02-25T19:39:56.886Z,100.00
2023-02-25T19:41:59.624Z,100.00
2023-02-25T19:44:02.343Z,100.00
2023-02-25T19:46:09.513Z,100.00
2023-02-25T19:48:12.523Z,100.00
2023-02-25T19:50:16.693Z,100.00
2023-02-25T19:52:19.665Z,100.00
2023-02-25T19:54:25.976Z,100.00
2023-02-25T19:56:28.763Z,100.00
2023-02-25T19:58:31.885Z,100.00
2023-02-25T20:00:34.723Z,100.00
2023-02-25T20:02:37.687Z,100.00
2023-02-25T20:04:40.619Z,100.00
2023-02-25T20:06:43.499Z,100.00
2023-02-25T20:08:52.322Z,100.00
2023-02-25T20:10:56.391Z,100.00
2023-02-25T20:12:59.141Z,100.00
2023-02-25T20:15:01.898Z,100.00
2023-02-25T20:17:05.012Z,100.00
2023-02-25T20:19:08.390Z,100.00
2023-02-25T20:21:11.177Z,100.00
2023-02-25T20:23:14.036Z,100.00
2023-02-25T20:25:17.093Z,100.00
2023-02-25T20:27:21.318Z,100.00
2023-02-25T20:29:24.498Z,100.00
2023-02-25T20:31:28.398Z,100.00
2023-02-25T20:33:31.139Z,100.00
2023-02-25T20:35:34.616Z,100.00
2023-02-25T20:37:44.124Z,100.00
2023-02-25T20:39:53.389Z,100.00
2023-02-25T20:41:56.377Z,100.00
2023-02-25T20:44:00.784Z,100.00
2023-02-25T20:46:03.818Z,100.00
2023-02-25T20:48:07.020Z,100.00
2023-02-25T20:50:11.092Z,100.00
2023-02-25T20:52:15.670Z,100.00
2023-02-25T20:54:19.650Z,100.00
2023-02-25T20:56:25.279Z,100.00
2023-02-25T20:58:28.230Z,100.00
2023-02-25T21:00:32.298Z,100.00
2023-02-25T21:02:35.064Z,100.00
2023-02-25T21:04:38.071Z,100.00
2023-02-25T21:06:40.923Z,100.00
2023-02-25T21:08:43.800Z,100.00
2023-02-25T21:10:46.856Z,100.00
2023-02-25T21:12:49.666Z,100.00
2023-02-25T21:14:53.236Z,100.00
2023-02-25T21:16:57.496Z,100.00
2023-02-25T21:19:01.143Z,100.00
2023-02-25T21:21:07.626Z,100.00
2023-02-25T21:23:11.372Z,100.00
2023-02-25T21:25:14.192Z,100.00
2023-02-25T21:27:17.354Z,100.00
2023-02-25T21:29:21.581Z,100.00
2023-02-25T21:31:24.557Z,100.00
2023-02-25T21:33:29.069Z,100.00
2023-02-25T21:35:32.501Z,100.00
2023-02-25T21:37:35.253Z,100.00
2023-02-25T21:39:38.164Z,100.00
2023-02-25T21:41:44.265Z,100.00
2023-02-25T21:43:47.427Z,100.00
2023-02-25T21:45:54.205Z,100.00
2023-02-25T21:47:56.955Z,100.00
2023-02-25T21:50:01.019Z,100.00
2023-02-25T21:52:03.992Z,100.00
2023-02-25T21:54:07.151Z,100.00
2023-02-25T21:56:11.664Z,100.00
2023-02-25T21:58:15.113Z,100.00
2023-02-25T22:00:18.773Z,100.00
2023-02-25T22:02:21.582Z,100.00
2023-02-25T22:04:24.408Z,100.00
2023-02-25T22:06:29.253Z,100.00
2023-02-25T22:08:32.001Z,100.00
2023-02-25T22:10:35.307Z,100.00
2023-02-25T22:12:38.130Z,100.00
2023-02-25T22:14:40.839Z,100.00
2023-02-25T22:16:43.615Z,100.00
2023-02-25T22:18:46.548Z,100.00
2023-02-25T22:20:49.659Z,100.00
2023-02-25T22:22:53.737Z,100.00
2023-02-25T22:24:56.719Z,100.00
2023-02-25T22:26:59.449Z,100.00
2023-02-25T22:29:04.794Z,100.00
2023-02-25T22:31:10.340Z,100.00
2023-02-25T22:33:13.133Z,100.00
2023-02-25T22:35:16.032Z,100.00
2023-02-25T22:37:18.785Z,100.00
2023-02-25T22:39:23.015Z,100.00
2023-02-25T22:41:28.164Z,100.00
2023-02-25T22:43:31.227Z,100.00
2023-02-25T22:45:33.950Z,100.00
2023-02-25T22:47:36.744Z,100.00
2023-02-25T22:49:39.500Z,100.00
2023-02-25T22:51:43.644Z,100.00
2023-02-25T22:53:46.402Z,100.00
2023-02-25T22:55:50.524Z,100.00
2023-02-25T22:57:53.248Z,100.00
2023-02-25T22:59:55.994Z,100.00
2023-02-25T23:01:59.502Z,100.00
2023-02-25T23:04:02.871Z,100.00
2023-02-25T23:06:06.952Z,100.00
2023-02-25T23:08:09.766Z,100.00
2023-02-25T23:10:12.984Z,100.00
2023-02-25T23:12:17.560Z,100.00
2023-02-25T23:14:20.354Z,100.00
2023-02-25T23:16:25.898Z,100.00
2023-02-25T23:18:28.870Z,100.00
2023-02-25T23:20:32.465Z,100.00
2023-02-25T23:22:35.505Z,100.00
2023-02-25T23:24:38.245Z,100.00
2023-02-25T23:26:42.257Z,100.00
2023-02-25T23:28:47.314Z,100.00
2023-02-25T23:30:50.147Z,100.00
2023-02-25T23:32:53.059Z,100.00
2023-02-25T23:34:55.784Z,100.00
2023-02-25T23:36:58.819Z,100.00
2023-02-25T23:39:02.805Z,100.00
2023-02-25T23:41:05.924Z,100.00
2023-02-25T23:43:08.737Z,100.00
2023-02-25T23:45:14.886Z,100.00
2023-02-25T23:47:19.429Z,100.00
2023-02-25T23:49:23.355Z,100.00
2023-02-25T23:51:26.941Z,100.00
2023-02-25T23:53:29.753Z,100.00
2023-02-25T23:55:32.721Z,100.00
2023-02-25T23:57:35.966Z,100.00
2023-02-25T23:59:38.749Z,100.00
